»·PEaware :: N529MC KLAX-KSAN

N529MC :: KLAX-KSAN

FLIGHT INFORMATION

Flight Status: Arrived
Operator: Privately registered:
United States
More flights under this callsign
Pilot: Brody Z. (18981)
Aircraft: CESSNA 172 SKYHAWK
(C172)
More flights by this aircraft type
Origin: KLAX Los Angeles Intl
United States
Destination: KSAN San Diego Intl-Lindbergh
United States
More flights between these airports :: More routes between these airports
Route: +
File this flight plan on PilotEdge
Remarks: cat11
Altitude:
(Current/Filed)
5,500ft
Speed:
(Current/Filed)
0kts
Departed: 03-Dec-18 02:09 PM
Arrived: 03-Dec-18 03:23 PM
Distance/Time
Traveled:
95nm/1:14
Distance/Time
To Go:
Arrived

Flight Plot

Page will automatically refresh every two minutes.


Map Options




Map Legend


Flown Route
Filed Route
Departure Airport
Arrival Airport
Navaid (VOR, NDB)
Fix

Horizontal Profiles

Position Reports

Time Latitude Longitude Heading Altitude Ground
Speed
03-Dec-18 13:53 33.933225 -118.402154 353 129ft 0kts
03-Dec-18 13:54 33.933225 -118.402154 353 129ft 0kts
03-Dec-18 13:55 33.933225 -118.402154 353 129ft 0kts
03-Dec-18 13:56 33.933225 -118.402154 353 129ft 0kts
03-Dec-18 13:57 33.933225 -118.402154 353 129ft 0kts
03-Dec-18 13:58 33.933225 -118.402154 353 129ft 0kts
03-Dec-18 13:59 33.933225 -118.402154 353 129ft 0kts
03-Dec-18 14:01 33.933225 -118.402154 353 129ft 0kts
03-Dec-18 14:02 33.933225 -118.402154 353 129ft 0kts
03-Dec-18 14:03 33.934128 -118.401558 56 129ft 6kts
03-Dec-18 14:04 33.934537 -118.398191 82 129ft 35kts
03-Dec-18 14:05 33.935167 -118.392125 85 129ft 31kts
03-Dec-18 14:06 33.935703 -118.386886 84 129ft 32kts
03-Dec-18 14:07 33.936492 -118.382787 356 129ft 10kts
03-Dec-18 14:08 33.936546 -118.382795 351 129ft 0kts
03-Dec-18 14:09 33.937124 -118.385187 263 129ft 56kts
03-Dec-18 14:10 33.935652 -118.402112 267 609ft 91kts
03-Dec-18 14:11 33.934919 -118.431946 267 1682ft 91kts
03-Dec-18 14:12 33.934306 -118.462315 267 2730ft 91kts
03-Dec-18 14:13 33.929669 -118.498690 241 2795ft 120kts
03-Dec-18 14:14 33.904190 -118.513881 172 2793ft 116kts
03-Dec-18 14:15 33.871904 -118.509960 172 2794ft 119kts
03-Dec-18 14:16 33.838522 -118.505865 172 2797ft 120kts
03-Dec-18 14:17 33.810982 -118.484888 142 2811ft 119kts
03-Dec-18 14:18 33.799175 -118.449626 101 2811ft 119kts
03-Dec-18 14:19 33.793164 -118.410952 101 2810ft 118kts
03-Dec-18 14:19 33.783061 -118.382691 160 2808ft 118kts
03-Dec-18 14:21 33.747140 -118.376144 171 3402ft 87kts
03-Dec-18 14:21 33.729751 -118.371748 161 4308ft 74kts
03-Dec-18 14:23 33.708376 -118.363910 161 5377ft 70kts
03-Dec-18 14:23 33.688322 -118.356801 166 5532ft 111kts
03-Dec-18 14:25 33.651657 -118.361501 189 5524ft 117kts
03-Dec-18 14:25 33.625838 -118.367368 188 5522ft 109kts
03-Dec-18 14:26 33.596435 -118.373708 187 5523ft 107kts
03-Dec-18 14:27 33.566794 -118.379969 187 5524ft 110kts
03-Dec-18 14:28 33.536738 -118.386278 187 5523ft 110kts
03-Dec-18 14:29 33.506629 -118.392581 187 5523ft 110kts
03-Dec-18 14:30 33.476603 -118.398861 187 5523ft 110kts
03-Dec-18 14:31 33.447041 -118.405035 187 5525ft 110kts
03-Dec-18 14:32 33.416877 -118.411346 188 5510ft 111kts
03-Dec-18 14:33 33.386457 -118.417707 187 5507ft 110kts
03-Dec-18 14:34 33.372301 -118.388691 105 5507ft 114kts
03-Dec-18 14:35 33.366494 -118.351191 103 5507ft 114kts
03-Dec-18 14:36 33.361309 -118.313605 103 5507ft 114kts
03-Dec-18 14:37 33.356286 -118.275962 103 5507ft 114kts
03-Dec-18 14:38 33.351344 -118.238544 102 5507ft 115kts
03-Dec-18 14:39 33.346382 -118.200842 102 5507ft 115kts
03-Dec-18 14:40 33.341371 -118.162900 102 5507ft 115kts
03-Dec-18 14:41 33.336372 -118.125184 102 5542ft 114kts
03-Dec-18 14:42 33.331351 -118.087421 102 5544ft 115kts
03-Dec-18 14:43 33.326310 -118.049542 102 5543ft 115kts
03-Dec-18 14:44 33.321252 -118.011623 102 5543ft 115kts
03-Dec-18 14:45 33.316207 -117.973886 102 5543ft 115kts
03-Dec-18 14:46 33.311124 -117.935960 102 5543ft 115kts
03-Dec-18 14:47 33.306073 -117.898368 103 5543ft 115kts
03-Dec-18 14:48 33.301148 -117.860520 103 5544ft 115kts
03-Dec-18 14:49 33.296097 -117.822696 103 5544ft 115kts
03-Dec-18 14:50 33.290996 -117.784887 103 5544ft 115kts
03-Dec-18 14:51 33.283136 -117.748664 145 5540ft 110kts
03-Dec-18 14:52 33.257679 -117.728642 149 5544ft 110kts
03-Dec-18 14:53 33.231778 -117.709578 150 5544ft 110kts
03-Dec-18 14:54 33.205462 -117.690542 148 5543ft 110kts
03-Dec-18 14:55 33.179133 -117.671767 150 5542ft 107kts
03-Dec-18 14:56 33.156468 -117.655579 150 5542ft 89kts
03-Dec-18 14:57 33.135494 -117.640624 150 5543ft 87kts
03-Dec-18 14:58 33.118704 -117.628657 150 5543ft 86kts
03-Dec-18 14:59 33.100428 -117.615626 149 5543ft 86kts
03-Dec-18 15:00 33.084387 -117.593812 133 5543ft 87kts
03-Dec-18 15:01 33.067021 -117.571622 132 4950ft 95kts
03-Dec-18 15:02 33.051616 -117.547242 127 4159ft 92kts
03-Dec-18 15:03 33.035309 -117.523947 128 3527ft 74kts
03-Dec-18 15:04 33.020752 -117.502391 129 3548ft 86kts
03-Dec-18 15:05 33.006854 -117.479396 104 3550ft 91kts
03-Dec-18 15:06 33.001117 -117.449530 104 3547ft 91kts
03-Dec-18 15:07 32.996960 -117.421470 99 3547ft 93kts
03-Dec-18 15:08 32.993170 -117.392759 108 3544ft 89kts
03-Dec-18 15:09 32.978745 -117.365663 113 2777ft 104kts
03-Dec-18 15:10 32.968144 -117.335609 115 2074ft 88kts
03-Dec-18 15:11 32.954684 -117.309691 151 1767ft 97kts
03-Dec-18 15:12 32.932356 -117.300104 156 1772ft 104kts
03-Dec-18 15:13 32.905169 -117.287301 156 1770ft 106kts
03-Dec-18 15:14 32.879675 -117.275320 156 1741ft 93kts
03-Dec-18 15:15 32.856679 -117.263943 152 1739ft 94kts
03-Dec-18 15:16 32.833529 -117.249761 151 1740ft 98kts
03-Dec-18 15:17 32.806994 -117.233868 151 1737ft 103kts
03-Dec-18 15:18 32.784148 -117.220153 151 1734ft 85kts
03-Dec-18 15:19 32.760397 -117.206968 155 1331ft 100kts
03-Dec-18 15:20 32.744594 -117.186712 105 827ft 82kts
03-Dec-18 15:21 32.733132 -117.169135 212 628ft 70kts
03-Dec-18 15:22 32.733096 -117.187702 276 21ft 15kts
03-Dec-18 15:23 32.732509 -117.188569 202 21ft 0kts
03-Dec-18 15:24 32.732588 -117.189838 281 21ft 9kts
03-Dec-18 15:25 32.731585 -117.190938 202 21ft 0kts

Navigation Log

Ident Type
Flight plan parsing failed, navigation log unavailable